Time;durP1;ratioP1;P1;durP2;ratioP2;P2;SDS_P1;SDS_P2;PMS_P1;PMS_P2;Temp;Humidity;BMP_temperature;BMP_pressure;BME280_temperature;BME280_humidity;BME280_pressure;Samples;Min_cycle;Max_cycle;Signal;HPM_P1;HPM_P2
2023/03/21 04:01:49;;;;;;;2.83;1.90;;;11.30;75.20;;;;;;5427268;23;20505;-73
2023/03/21 04:04:16;;;;;;;3.47;2.03;;;11.40;75.10;;;;;;4975223;28;20450;-73
2023/03/21 04:06:44;;;;;;;3.60;1.90;;;11.40;75.00;;;;;;4974886;28;20899;-72
2023/03/21 04:09:11;;;;;;;2.93;1.70;;;11.30;75.00;;;;;;4975237;28;20450;-73
2023/03/21 04:11:38;;;;;;;3.20;1.57;;;11.40;75.20;;;;;;4975221;28;20466;-72
2023/03/21 04:16:33;;;;;;;2.43;1.40;;;11.20;75.30;;;;;;5056897;23;20486;-73
2023/03/21 04:19:01;;;;;;;2.63;1.30;;;11.30;75.50;;;;;;4974312;28;21009;-73
2023/03/21 04:21:28;;;;;;;2.70;1.50;;;11.40;75.30;;;;;;4974590;28;20454;-73
2023/03/21 04:23:56;;;;;;;3.67;1.47;;;11.40;75.10;;;;;;4974533;28;20452;-74
2023/03/21 04:26:23;;;;;;;2.37;1.50;;;11.50;74.90;;;;;;4974540;28;20470;-73
2023/03/21 04:28:50;;;;;;;3.13;1.60;;;11.40;74.80;;;;;;4974542;28;20447;-73
2023/03/21 04:31:17;;;;;;;3.10;1.70;;;11.30;74.80;;;;;;4974547;28;20446;-71
2023/03/21 04:33:46;;;;;;;3.37;1.90;;;11.30;75.10;;;;;;4974441;28;20454;-71
2023/03/21 04:36:23;;;;;;;2.93;2.10;;;11.30;75.00;;;;;;4974420;28;20530;-73
2023/03/21 04:38:51;;;;;;;3.20;2.20;;;11.40;74.70;;;;;;4974387;28;20466;-73
2023/03/21 04:41:18;;;;;;;2.87;1.83;;;11.40;74.70;;;;;;4974501;28;20454;-73
2023/03/21 04:43:46;;;;;;;2.70;1.63;;;11.40;74.50;;;;;;4974471;28;20537;-73
2023/03/21 04:46:12;;;;;;;2.40;1.70;;;11.50;74.30;;;;;;4974408;28;20467;-73
2023/03/21 04:48:39;;;;;;;2.60;1.43;;;11.50;74.00;;;;;;4974444;28;20846;-73
2023/03/21 04:51:06;;;;;;;2.50;1.70;;;11.40;74.30;;;;;;4974413;28;20865;-73
2023/03/21 04:53:34;;;;;;;2.90;1.70;;;11.40;74.30;;;;;;4974398;28;20517;-73
2023/03/21 04:56:01;;;;;;;2.83;1.87;;;11.40;74.40;;;;;;4974082;28;20979;-74
2023/03/21 04:58:29;;;;;;;2.57;1.53;;;11.30;74.40;;;;;;4976783;28;20915;-73
2023/03/21 05:00:56;;;;;;;2.70;1.63;;;11.30;74.30;;;;;;4978298;28;20497;-73
2023/03/21 05:03:22;;;;;;;2.50;1.33;;;11.30;74.50;;;;;;4977963;28;21018;-73
2023/03/21 05:05:49;;;;;;;2.73;1.63;;;11.30;74.30;;;;;;4978116;28;20470;-74
2023/03/21 05:08:16;;;;;;;2.87;1.67;;;11.30;74.30;;;;;;4977860;28;20868;-73
2023/03/21 05:10:44;;;;;;;2.77;1.50;;;11.30;74.40;;;;;;4978125;28;20454;-73
2023/03/21 05:13:11;;;;;;;2.90;1.67;;;11.20;74.20;;;;;;4978015;28;20450;-73
2023/03/21 05:15:38;;;;;;;3.20;1.73;;;11.20;74.50;;;;;;4977631;28;20540;-71
2023/03/21 05:18:10;;;;;;;2.20;1.37;;;11.10;74.40;;;;;;4977840;28;20485;-70
2023/03/21 05:20:37;;;;;;;2.80;1.50;;;11.10;74.50;;;;;;4977942;28;20442;-70
2023/03/21 05:23:03;;;;;;;3.90;1.60;;;11.10;74.60;;;;;;4977948;28;20450;-73
2023/03/21 05:25:34;;;;;;;3.00;1.90;;;11.10;74.60;;;;;;4977742;28;20470;-73
2023/03/21 05:28:02;;;;;;;2.30;1.20;;;11.00;74.60;;;;;;4978108;28;20548;-73
2023/03/21 05:30:29;;;;;;;6.20;2.70;;;11.00;74.60;;;;;;4977783;28;20453;-72
2023/03/21 05:32:55;;;;;;;2.63;1.50;;;11.00;74.50;;;;;;4977670;28;20528;-73
2023/03/21 05:35:22;;;;;;;2.60;1.40;;;11.00;74.80;;;;;;4977624;28;20521;-73
2023/03/21 05:37:49;;;;;;;2.20;1.13;;;11.00;74.60;;;;;;4977571;28;20485;-73
2023/03/21 05:40:15;;;;;;;2.47;1.30;;;11.00;74.90;;;;;;4977615;28;20446;-73
2023/03/21 05:42:42;;;;;;;3.57;2.00;;;11.00;74.80;;;;;;4977667;28;20830;-73
2023/03/21 05:45:11;;;;;;;2.87;2.07;;;11.10;74.70;;;;;;4977520;28;20528;-73
2023/03/21 05:47:38;;;;;;;3.33;2.50;;;11.00;74.70;;;;;;4977273;28;20948;-73
2023/03/21 05:50:06;;;;;;;4.03;2.77;;;11.00;75.00;;;;;;4977504;28;20449;-73
2023/03/21 05:52:33;;;;;;;6.87;4.03;;;11.00;75.10;;;;;;4977484;28;20532;-75
2023/03/21 05:54:59;;;;;;;3.60;2.80;;;11.00;75.20;;;;;;4976964;28;20870;-73
2023/03/21 05:57:27;;;;;;;3.73;2.50;;;11.00;75.40;;;;;;4976929;28;20911;-73
2023/03/21 05:59:54;;;;;;;3.17;2.17;;;11.00;75.30;;;;;;4977273;28;20457;-72
2023/03/21 06:02:22;;;;;;;4.33;2.10;;;10.90;75.50;;;;;;4977266;28;20500;-73
2023/03/21 06:04:49;;;;;;;4.10;1.60;;;10.80;75.90;;;;;;4977157;28;20500;-70
2023/03/21 06:07:15;;;;;;;4.67;1.47;;;10.70;75.70;;;;;;4977152;28;20496;-70
2023/03/21 06:09:42;;;;;;;2.30;1.30;;;10.40;76.30;;;;;;4977005;28;20447;-70
2023/03/21 06:12:09;;;;;;;2.60;1.63;;;10.30;76.80;;;;;;4976772;28;20781;-70
2023/03/21 06:14:35;;;;;;;2.40;1.30;;;10.30;77.20;;;;;;4976751;28;20478;-71
2023/03/21 06:17:02;;;;;;;2.97;1.70;;;10.30;77.40;;;;;;4977052;28;20517;-70
2023/03/21 06:19:30;;;;;;;2.60;1.70;;;10.40;77.40;;;;;;4976847;28;20498;-70
2023/03/21 06:21:57;;;;;;;2.40;1.43;;;10.40;77.30;;;;;;4976582;28;20455;-70
2023/03/21 06:24:25;;;;;;;3.10;1.70;;;10.50;77.40;;;;;;4976428;28;20800;-70
2023/03/21 06:26:52;;;;;;;2.30;1.20;;;10.60;77.80;;;;;;4976736;28;20516;-70
2023/03/21 06:29:18;;;;;;;2.60;1.50;;;10.70;77.10;;;;;;4976757;28;20446;-71
2023/03/21 06:31:45;;;;;;;2.40;1.27;;;10.70;77.20;;;;;;4976599;28;20451;-70
2023/03/21 06:34:12;;;;;;;2.97;1.83;;;10.80;76.90;;;;;;4976650;28;20462;-70
2023/03/21 06:36:40;;;;;;;2.40;1.40;;;10.90;76.60;;;;;;4976591;28;20832;-70
2023/03/21 06:39:07;;;;;;;2.23;1.30;;;11.00;76.30;;;;;;4976195;28;21006;-70
2023/03/21 06:41:34;;;;;;;3.67;2.00;;;11.20;75.80;;;;;;4976568;28;20501;-70
2023/03/21 06:44:00;;;;;;;2.50;1.43;;;11.40;74.90;;;;;;4976469;28;20457;-71
2023/03/21 06:46:27;;;;;;;2.97;1.70;;;11.70;74.70;;;;;;4976440;28;20470;-70
2023/03/21 06:48:54;;;;;;;2.47;1.67;;;12.30;72.80;;;;;;4976494;28;20450;-70
2023/03/21 06:51:20;;;;;;;2.50;1.60;;;13.50;69.20;;;;;;4976313;28;20461;-70
2023/03/21 06:53:48;;;;;;;2.33;1.20;;;14.90;65.40;;;;;;4976051;28;20951;-71
2023/03/21 06:56:15;;;;;;;2.70;1.43;;;16.40;62.10;;;;;;4976436;28;20618;-70
2023/03/21 06:58:42;;;;;;;2.33;1.33;;;18.00;58.40;;;;;;4976355;28;20481;-72
2023/03/21 07:01:09;;;;;;;2.80;1.63;;;19.10;54.50;;;;;;4976206;28;20501;-71
2023/03/21 07:03:36;;;;;;;2.73;1.80;;;19.50;52.80;;;;;;4976317;28;20557;-71
2023/03/21 07:06:10;;;;;;;3.00;1.83;;;19.90;52.30;;;;;;4976195;28;20481;-71
2023/03/21 07:08:37;;;;;;;3.77;1.60;;;21.00;50.50;;;;;;4976214;28;20434;-70
2023/03/21 07:11:06;;;;;;;2.60;1.40;;;20.80;49.10;;;;;;4976086;28;20525;-71
2023/03/21 07:13:33;;;;;;;2.63;1.40;;;20.10;49.80;;;;;;4976017;28;20454;-72
2023/03/21 07:16:00;;;;;;;2.53;1.60;;;20.20;51.20;;;;;;4975522;28;20544;-70
2023/03/21 07:18:27;;;;;;;2.47;1.53;;;21.00;49.20;;;;;;4975923;28;20490;-71
2023/03/21 07:20:54;;;;;;;2.40;1.50;;;21.60;47.80;;;;;;4975295;28;20450;-71
2023/03/21 07:23:22;;;;;;;2.60;1.57;;;21.70;48.10;;;;;;4975792;28;20452;-71
2023/03/21 07:25:50;;;;;;;3.03;1.80;;;22.00;47.70;;;;;;4975652;28;20525;-71
2023/03/21 07:28:19;;;;;;;3.70;1.57;;;22.10;46.60;;;;;;4975543;28;20454;-70
2023/03/21 07:30:51;;;;;;;2.53;1.60;;;21.40;49.10;;;;;;4975764;28;20494;-71
2023/03/21 07:33:18;;;;;;;4.83;1.40;;;21.60;48.70;;;;;;4976106;28;20474;-71
2023/03/21 07:35:45;;;;;;;2.20;1.23;;;21.10;49.20;;;;;;4975311;28;20466;-71
2023/03/21 07:38:13;;;;;;;2.90;1.50;;;20.60;50.10;;;;;;4975344;28;20474;-71
2023/03/21 07:40:40;;;;;;;2.77;1.40;;;20.20;51.30;;;;;;4975333;28;20589;-70
2023/03/21 07:43:06;;;;;;;2.50;1.40;;;19.60;51.60;;;;;;4975540;28;20454;-71
2023/03/21 07:45:34;;;;;;;2.40;1.50;;;19.20;53.60;;;;;;4974934;28;20853;-73
2023/03/21 07:48:01;;;;;;;2.30;1.40;;;18.50;53.90;;;;;;4975200;28;20870;-70
2023/03/21 07:50:28;;;;;;;2.40;1.53;;;17.90;55.40;;;;;;4975120;28;20445;-70
2023/03/21 07:52:54;;;;;;;3.33;1.60;;;17.50;55.10;;;;;;4975231;28;20450;-70
2023/03/21 07:55:21;;;;;;;3.67;1.40;;;17.10;56.40;;;;;;4975058;28;20521;-71
2023/03/21 07:57:50;;;;;;;2.80;1.60;;;16.90;57.20;;;;;;4974840;28;20860;-71
2023/03/21 08:00:21;;;;;;;2.37;1.30;;;16.90;57.40;;;;;;4974885;28;20466;-71
2023/03/21 08:02:53;;;;;;;3.07;1.70;;;16.80;58.40;;;;;;4974684;28;20943;-71
2023/03/21 08:05:20;;;;;;;2.40;1.33;;;16.70;58.50;;;;;;4974950;28;20517;-72
2023/03/21 08:07:47;;;;;;;2.37;1.43;;;16.00;59.60;;;;;;4974926;28;20446;-72
2023/03/21 08:10:14;;;;;;;3.07;1.83;;;15.90;60.10;;;;;;4975418;28;20446;-73
2023/03/21 08:12:41;;;;;;;2.97;1.40;;;15.90;59.80;;;;;;4975152;28;20454;-72
2023/03/21 08:15:08;;;;;;;2.27;1.20;;;15.90;59.80;;;;;;4974554;28;20482;-73
2023/03/21 08:17:36;;;;;;;2.50;1.30;;;15.80;60.60;;;;;;4974805;28;20533;-73
2023/03/21 08:20:07;;;;;;;3.43;2.23;;;16.00;59.40;;;;;;4974310;28;20488;-72
2023/03/21 08:22:34;;;;;;;4.47;1.30;;;15.90;59.00;;;;;;4974671;28;20812;-72
2023/03/21 08:25:02;;;;;;;3.00;1.20;;;15.60;60.00;;;;;;4974499;28;20504;-73
2023/03/21 08:27:29;;;;;;;2.67;1.43;;;15.80;60.40;;;;;;4974692;28;20482;-73
2023/03/21 08:29:56;;;;;;;2.20;1.30;;;16.00;59.10;;;;;;4974551;28;20450;-72
2023/03/21 08:32:28;;;;;;;2.90;1.50;;;15.70;59.40;;;;;;4973372;28;20841;-72
2023/03/21 08:34:54;;;;;;;2.60;1.50;;;15.30;58.40;;;;;;4974560;28;20498;-73
2023/03/21 08:37:22;;;;;;;2.37;1.20;;;15.10;59.90;;;;;;4974566;28;20512;-73
2023/03/21 08:39:49;;;;;;;2.40;1.20;;;15.20;60.70;;;;;;4974133;28;21093;-70
2023/03/21 08:42:16;;;;;;;2.20;1.20;;;15.60;58.00;;;;;;4974580;28;20451;-72
2023/03/21 08:44:43;;;;;;;3.97;1.10;;;15.70;57.30;;;;;;4974404;28;20557;-72
2023/03/21 08:47:09;;;;;;;2.43;1.40;;;15.60;58.10;;;;;;4974181;28;20467;-72
2023/03/21 08:49:36;;;;;;;2.70;1.43;;;15.60;56.00;;;;;;4974452;28;20443;-72
2023/03/21 08:52:05;;;;;;;2.70;1.10;;;15.50;57.10;;;;;;4974347;28;20458;-73
2023/03/21 08:54:33;;;;;;;2.30;1.40;;;15.60;58.20;;;;;;4974257;28;20466;-73
2023/03/21 08:56:59;;;;;;;2.60;1.23;;;15.70;55.20;;;;;;4974333;28;20481;-73
2023/03/21 08:59:26;;;;;;;2.07;1.10;;;16.00;54.40;;;;;;4973902;28;21007;-73
2023/03/21 09:01:53;;;;;;;2.40;1.10;;;16.40;52.40;;;;;;4973858;28;21003;-73
2023/03/21 09:04:19;;;;;;;2.10;1.00;;;16.70;51.10;;;;;;4973942;28;20505;-73
2023/03/21 09:06:47;;;;;;;2.80;1.27;;;16.70;49.40;;;;;;4974335;28;20458;-73
2023/03/21 09:09:15;;;;;;;2.40;0.90;;;16.80;51.40;;;;;;4974160;28;20450;-72
2023/03/21 09:11:43;;;;;;;3.70;1.00;;;16.90;51.60;;;;;;4973978;28;20450;-73
2023/03/21 09:14:10;;;;;;;2.23;1.10;;;17.00;51.30;;;;;;4973998;28;20497;-73
2023/03/21 09:16:37;;;;;;;2.17;1.00;;;17.00;53.10;;;;;;4973744;28;20462;-72
2023/03/21 09:19:07;;;;;;;2.30;1.10;;;16.80;53.40;;;;;;4974504;28;20489;-72
2023/03/21 09:21:34;;;;;;;2.37;1.23;;;16.60;53.80;;;;;;4973852;28;20935;-73
2023/03/21 09:24:01;;;;;;;2.20;1.10;;;16.20;54.80;;;;;;4974138;28;20454;-72
2023/03/21 09:26:29;;;;;;;2.10;1.13;;;15.90;56.70;;;;;;4973755;28;20850;-73
2023/03/21 09:28:57;;;;;;;2.20;1.20;;;16.40;56.20;;;;;;4974068;28;20447;-74
2023/03/21 09:31:24;;;;;;;2.70;1.23;;;16.50;58.00;;;;;;4974112;28;20450;-74
2023/03/21 09:33:52;;;;;;;3.20;1.20;;;16.60;55.40;;;;;;4975752;28;20450;-73
2023/03/21 09:36:20;;;;;;;3.47;1.20;;;16.30;56.00;;;;;;4973865;28;20828;-72
2023/03/21 09:38:49;;;;;;;3.30;1.20;;;16.30;56.20;;;;;;4974206;28;20478;-73
2023/03/21 09:41:40;;;;;;;2.50;1.47;;;16.20;55.80;;;;;;4974158;28;20814;-73
2023/03/21 09:44:24;;;;;;;2.80;1.10;;;16.20;56.90;;;;;;4976150;28;20446;-74
2023/03/21 09:46:55;;;;;;;2.53;1.13;;;16.30;55.30;;;;;;4978678;28;20446;-73
2023/03/21 09:49:28;;;;;;;2.00;0.90;;;16.00;56.20;;;;;;4977783;28;20431;-73
2023/03/21 09:51:56;;;;;;;2.50;1.30;;;15.90;56.20;;;;;;4977801;28;20446;-74
2023/03/21 09:54:26;;;;;;;2.20;1.27;;;15.90;57.30;;;;;;4977741;28;20548;-74
2023/03/21 09:56:57;;;;;;;2.20;1.00;;;16.10;57.40;;;;;;4977606;28;20534;-74
2023/03/21 09:59:32;;;;;;;2.00;0.90;;;16.10;57.10;;;;;;4976910;28;21034;-74
2023/03/21 10:02:00;;;;;;;2.30;1.17;;;16.20;54.70;;;;;;4977056;28;20525;-74
2023/03/21 10:04:28;;;;;;;2.07;0.90;;;16.50;54.40;;;;;;4976924;28;20552;-74
2023/03/21 10:06:58;;;;;;;2.00;0.90;;;16.70;51.50;;;;;;4977192;28;20450;-75
2023/03/21 10:09:27;;;;;;;2.40;1.00;;;17.00;51.40;;;;;;4977049;28;20446;-74
2023/03/21 10:11:58;;;;;;;2.30;0.73;;;17.10;50.00;;;;;;4977107;28;20457;-74
2023/03/21 10:14:30;;;;;;;2.50;1.30;;;17.30;50.80;;;;;;4977397;28;20454;-74
2023/03/21 10:17:00;;;;;;;2.30;1.27;;;17.50;50.30;;;;;;4977274;28;20477;-74
2023/03/21 10:19:28;;;;;;;2.10;0.90;;;17.70;51.10;;;;;;4976627;28;20490;-72
2023/03/21 10:21:54;;;;;;;3.03;1.10;;;17.70;49.90;;;;;;4976693;28;20446;-74
2023/03/21 10:24:24;;;;;;;2.53;0.80;;;17.40;49.50;;;;;;4976621;28;20459;-74
2023/03/21 10:26:52;;;;;;;2.83;1.30;;;16.90;51.70;;;;;;4976444;28;20450;-72
2023/03/21 10:29:22;;;;;;;2.53;1.03;;;17.00;53.30;;;;;;4976684;28;20442;-75
2023/03/21 10:31:51;;;;;;;2.30;1.00;;;17.10;52.20;;;;;;4976702;28;20892;-74
2023/03/21 10:34:25;;;;;;;2.20;1.10;;;17.20;52.70;;;;;;4976546;28;20450;-74
2023/03/21 10:36:52;;;;;;;1.97;1.00;;;17.30;54.70;;;;;;4976663;28;20449;-74
2023/03/21 10:39:26;;;;;;;2.20;1.20;;;17.50;53.40;;;;;;4976618;28;20481;-74
2023/03/21 10:41:53;;;;;;;1.90;0.83;;;17.20;53.40;;;;;;4976886;28;20965;-74
2023/03/21 10:44:21;;;;;;;2.20;0.90;;;17.00;53.10;;;;;;4976393;28;20454;-74
2023/03/21 10:46:54;;;;;;;2.10;1.10;;;16.90;52.70;;;;;;4976483;28;20453;-74
2023/03/21 10:49:21;;;;;;;1.90;0.90;;;16.80;54.00;;;;;;4977531;28;20831;-74
2023/03/21 10:51:50;;;;;;;2.13;0.90;;;16.90;51.50;;;;;;4976451;28;20528;-74
2023/03/21 10:54:20;;;;;;;2.70;0.90;;;17.20;51.00;;;;;;4975998;28;20454;-75
2023/03/21 10:56:55;;;;;;;2.50;0.90;;;17.30;51.10;;;;;;4975587;28;20859;-74
2023/03/21 10:59:23;;;;;;;1.90;0.90;;;17.40;50.70;;;;;;4976235;28;20480;-75
2023/03/21 11:01:54;;;;;;;2.17;1.00;;;17.30;51.10;;;;;;4976262;28;20453;-74
2023/03/21 11:04:24;;;;;;;2.83;1.00;;;17.00;51.00;;;;;;4976976;28;20502;-76
2023/03/21 11:06:54;;;;;;;2.60;1.00;;;16.70;53.10;;;;;;4976227;28;20474;-74
2023/03/21 11:09:23;;;;;;;2.00;1.10;;;16.90;52.30;;;;;;4976097;28;20537;-73
2023/03/21 11:11:52;;;;;;;2.47;1.10;;;16.80;50.10;;;;;;4975991;28;20458;-74
2023/03/21 11:14:36;;;;;;;2.87;1.03;;;16.90;51.10;;;;;;4975594;28;20485;-74
2023/03/21 11:17:20;;;;;;;2.20;0.90;;;17.00;50.40;;;;;;4976064;28;20485;-74
2023/03/21 11:19:49;;;;;;;2.97;1.10;;;16.60;51.10;;;;;;4977519;28;20467;-75
2023/03/21 11:22:17;;;;;;;2.00;0.90;;;16.50;53.30;;;;;;4981106;28;20523;-74
2023/03/21 11:24:49;;;;;;;2.20;1.13;;;16.50;50.80;;;;;;4976924;28;20516;-73
2023/03/21 11:27:15;;;;;;;2.10;1.00;;;16.60;52.00;;;;;;4975841;28;20939;-73
2023/03/21 11:29:47;;;;;;;2.40;1.23;;;16.90;52.10;;;;;;4975782;28;20454;-73
2023/03/21 11:32:21;;;;;;;2.00;1.07;;;17.20;51.40;;;;;;4975740;28;20441;-73
2023/03/21 11:34:50;;;;;;;2.10;1.00;;;17.30;50.80;;;;;;4975597;28;20568;-73
2023/03/21 11:37:20;;;;;;;2.23;1.00;;;17.00;50.60;;;;;;4975496;28;20541;-75
2023/03/21 11:39:47;;;;;;;2.30;1.00;;;16.90;53.10;;;;;;4975386;28;20521;-73
2023/03/21 11:42:29;;;;;;;3.17;1.20;;;16.70;50.70;;;;;;4975404;28;20476;-74
2023/03/21 11:45:11;;;;;;;2.00;1.00;;;16.30;52.30;;;;;;4974955;28;20884;-74
2023/03/21 11:47:39;;;;;;;2.40;1.00;;;16.30;52.90;;;;;;4975294;28;20481;-72
2023/03/21 11:50:19;;;;;;;2.20;1.23;;;16.40;52.40;;;;;;4974656;28;20885;-74
2023/03/21 11:52:56;;;;;;;2.40;1.10;;;16.50;52.50;;;;;;4975073;28;20446;-74
2023/03/21 11:55:35;;;;;;;2.30;1.20;;;16.60;52.80;;;;;;4975179;28;20501;-74
2023/03/21 11:58:32;;;;;;;2.50;1.37;;;16.90;50.50;;;;;;4974859;28;20978;-74
2023/03/21 12:01:11;;;;;;;2.83;1.10;;;16.90;49.60;;;;;;4975439;28;20497;-74
2023/03/21 12:04:17;;;;;;;1.90;0.80;;;17.10;50.30;;;;;;4976566;28;20442;-73
2023/03/21 12:06:51;;;;;;;2.27;1.00;;;17.40;49.70;;;;;;4969103;28;20466;-74
2023/03/21 12:09:36;;;;;;;2.20;1.30;;;17.40;49.90;;;;;;4976229;28;20783;-74
2023/03/21 12:12:22;;;;;;;2.20;1.00;;;17.30;50.80;;;;;;4975863;28;20431;-74
2023/03/21 12:14:58;;;;;;;2.10;1.10;;;17.30;50.00;;;;;;4975876;28;20473;-74
2023/03/21 12:17:35;;;;;;;2.40;1.23;;;17.10;50.30;;;;;;4976219;28;20544;-74
2023/03/21 12:20:26;;;;;;;3.40;1.27;;;17.00;50.60;;;;;;4974595;28;20838;-74
2023/03/21 12:23:12;;;;;;;2.47;1.30;;;17.10;51.50;;;;;;4974908;28;20446;-74
2023/03/21 12:25:45;;;;;;;2.20;1.10;;;17.20;50.90;;;;;;4974741;28;20532;-73
2023/03/21 12:28:28;;;;;;;2.80;1.20;;;17.30;51.30;;;;;;4974838;28;20442;-74
2023/03/21 12:31:05;;;;;;;2.50;1.23;;;17.20;51.90;;;;;;4974594;28;20426;-74
2023/03/21 12:33:48;;;;;;;2.23;1.07;;;17.00;52.60;;;;;;4974742;28;20493;-73
2023/03/21 12:36:40;;;;;;;2.00;1.20;;;17.00;52.90;;;;;;4974596;28;20501;-73
2023/03/21 12:39:18;;;;;;;2.80;1.30;;;17.10;52.70;;;;;;4974558;28;20506;-73
2023/03/21 12:41:57;;;;;;;2.30;1.10;;;17.30;52.90;;;;;;4974550;28;20422;-73
2023/03/21 12:44:29;;;;;;;2.00;1.10;;;17.60;50.80;;;;;;4974458;28;20504;-74
2023/03/21 12:47:01;;;;;;;2.23;1.13;;;17.80;50.10;;;;;;4974208;28;20854;-73
2023/03/21 12:49:32;;;;;;;2.10;1.10;;;17.90;48.20;;;;;;4974432;28;20443;-72
2023/03/21 12:52:04;;;;;;;1.87;0.80;;;17.90;48.20;;;;;;4974087;28;20855;-73
2023/03/21 12:54:36;;;;;;;2.20;1.13;;;18.10;45.40;;;;;;4974417;28;20561;-73
2023/03/21 12:57:08;;;;;;;2.40;0.93;;;18.10;43.20;;;;;;4974562;28;20521;-73
2023/03/21 12:59:40;;;;;;;2.43;0.70;;;18.10;44.50;;;;;;4974372;28;20549;-72
2023/03/21 13:02:18;;;;;;;2.37;0.90;;;18.00;42.30;;;;;;4974586;28;20439;-73
2023/03/21 13:04:52;;;;;;;2.30;0.90;;;18.10;42.70;;;;;;4974254;28;20946;-72
2023/03/21 13:07:24;;;;;;;2.30;1.00;;;17.90;42.70;;;;;;4974322;28;20434;-74
2023/03/21 13:09:53;;;;;;;2.10;0.90;;;18.00;43.10;;;;;;4974280;28;20490;-73
2023/03/21 13:12:33;;;;;;;1.80;0.70;;;18.00;43.80;;;;;;4974276;28;20458;-73
2023/03/21 13:15:14;;;;;;;2.40;1.00;;;18.20;39.70;;;;;;4974034;28;20544;-73
2023/03/21 13:17:45;;;;;;;2.30;0.77;;;18.40;40.90;;;;;;4974205;28;20489;-72
2023/03/21 13:20:19;;;;;;;2.03;0.70;;;18.30;38.30;;;;;;4977948;28;20470;-73
2023/03/21 13:22:47;;;;;;;1.80;0.70;;;18.70;40.10;;;;;;4978115;28;20442;-73
2023/03/21 13:25:19;;;;;;;1.80;0.70;;;18.70;37.30;;;;;;4977851;28;20466;-73
2023/03/21 13:27:52;;;;;;;1.80;0.80;;;18.80;38.30;;;;;;4977645;28;20938;-73
2023/03/21 13:30:22;;;;;;;1.80;0.70;;;18.50;39.00;;;;;;4978049;28;20521;-73
2023/03/21 13:32:50;;;;;;;1.90;0.70;;;18.70;39.20;;;;;;4977812;28;20446;-73
2023/03/21 13:35:20;;;;;;;1.77;0.70;;;18.60;36.60;;;;;;4977652;28;20472;-73
2023/03/21 13:37:53;;;;;;;1.90;0.70;;;18.40;36.20;;;;;;4977769;28;20509;-73
2023/03/21 13:40:23;;;;;;;2.43;0.80;;;18.50;39.20;;;;;;4977404;28;20463;-73
2023/03/21 13:42:53;;;;;;;1.90;0.77;;;18.40;39.50;;;;;;4977267;28;20884;-73
2023/03/21 13:45:28;;;;;;;1.90;0.80;;;18.20;40.80;;;;;;4977255;28;20886;-73
2023/03/21 13:47:57;;;;;;;2.00;0.80;;;18.00;40.60;;;;;;4977681;28;20524;-72
2023/03/21 13:50:27;;;;;;;2.00;0.80;;;18.10;42.60;;;;;;4977624;28;20442;-73
2023/03/21 13:53:21;;;;;;;2.73;0.77;;;18.20;41.90;;;;;;4977571;28;20435;-73
2023/03/21 13:56:00;;;;;;;2.30;1.60;;;18.20;42.30;;;;;;4977062;28;20988;-72
2023/03/21 13:58:33;;;;;;;2.00;0.80;;;18.00;43.20;;;;;;4977545;28;20438;-71
2023/03/21 14:01:16;;;;;;;2.20;0.90;;;17.80;44.40;;;;;;4977224;28;20470;-72
2023/03/21 14:03:45;;;;;;;2.17;1.00;;;18.00;45.30;;;;;;4977344;28;20492;-73
2023/03/21 14:06:13;;;;;;;1.80;0.70;;;18.00;44.00;;;;;;4977225;28;20549;-73
2023/03/21 14:08:44;;;;;;;2.20;1.00;;;18.00;44.20;;;;;;4977182;28;20446;-72
2023/03/21 14:11:16;;;;;;;2.83;1.00;;;18.10;45.20;;;;;;4976995;28;20489;-73
2023/03/21 14:13:43;;;;;;;2.03;0.90;;;18.30;45.30;;;;;;4977261;28;20435;-73
2023/03/21 14:16:13;;;;;;;3.40;0.90;;;18.20;45.10;;;;;;4976762;28;20482;-73
2023/03/21 14:18:43;;;;;;;1.90;0.80;;;18.40;45.20;;;;;;4977168;28;20438;-73
2023/03/21 14:21:16;;;;;;;2.40;1.13;;;18.60;46.00;;;;;;4976768;28;20999;-74
2023/03/21 14:23:44;;;;;;;2.40;1.07;;;18.70;45.20;;;;;;4976717;28;20881;-74
2023/03/21 14:26:13;;;;;;;1.90;0.90;;;18.90;45.00;;;;;;4976852;28;20884;-74
2023/03/21 14:28:46;;;;;;;3.67;1.60;;;18.60;45.70;;;;;;4976894;28;20462;-73
2023/03/21 14:31:15;;;;;;;2.23;0.93;;;18.60;45.90;;;;;;4976605;28;20920;-74
2023/03/21 14:33:48;;;;;;;4.30;0.90;;;18.70;45.70;;;;;;4976830;28;21007;-73
2023/03/21 14:36:17;;;;;;;2.50;0.90;;;18.60;47.30;;;;;;4976728;28;20466;-74
2023/03/21 14:38:55;;;;;;;2.43;1.27;;;18.40;47.20;;;;;;4976697;28;20546;-74
2023/03/21 14:41:24;;;;;;;3.10;1.47;;;18.10;48.30;;;;;;4976886;28;20462;-74
2023/03/21 14:44:02;;;;;;;2.30;1.10;;;18.00;48.20;;;;;;4976781;28;20454;-74
2023/03/21 14:46:29;;;;;;;2.47;1.20;;;17.80;49.20;;;;;;4976544;28;20462;-73
2023/03/21 14:49:09;;;;;;;2.50;1.20;;;17.80;49.10;;;;;;4976557;28;20447;-73
2023/03/21 14:51:36;;;;;;;2.77;1.30;;;17.90;48.70;;;;;;4976766;28;20497;-73
2023/03/21 14:54:04;;;;;;;2.70;1.03;;;18.10;48.90;;;;;;4976526;28;20497;-74
2023/03/21 14:56:32;;;;;;;2.33;1.27;;;18.30;48.20;;;;;;4976006;28;20995;-73
2023/03/21 14:58:59;;;;;;;2.10;1.00;;;18.50;48.70;;;;;;4976677;28;20523;-75
2023/03/21 15:01:30;;;;;;;2.23;1.17;;;18.70;47.90;;;;;;4976330;28;20560;-74
2023/03/21 15:03:58;;;;;;;3.43;0.93;;;18.70;48.10;;;;;;4976322;28;20434;-74
2023/03/21 15:06:24;;;;;;;2.10;0.90;;;18.80;48.60;;;;;;4976236;28;20525;-74
2023/03/21 15:08:56;;;;;;;2.43;1.20;;;19.10;46.10;;;;;;4975923;28;20446;-75
2023/03/21 15:11:31;;;;;;;2.10;1.00;;;19.10;47.10;;;;;;4976141;28;20442;-73
2023/03/21 15:14:01;;;;;;;2.30;1.10;;;19.40;47.70;;;;;;4976113;28;20433;-75
2023/03/21 15:16:29;;;;;;;3.07;1.10;;;19.90;46.10;;;;;;4975657;28;20470;-72
2023/03/21 15:18:56;;;;;;;2.17;1.10;;;20.10;44.90;;;;;;4976068;28;20449;-74
2023/03/21 15:21:27;;;;;;;2.30;0.97;;;20.70;44.30;;;;;;4975594;28;20904;-74
2023/03/21 15:23:57;;;;;;;2.00;0.90;;;21.10;44.00;;;;;;4975965;28;20534;-74
2023/03/21 15:26:25;;;;;;;2.20;0.90;;;21.30;42.60;;;;;;4975869;28;20478;-75
2023/03/21 15:28:58;;;;;;;2.30;0.87;;;21.40;42.80;;;;;;4975729;28;20986;-73
2023/03/21 15:31:28;;;;;;;2.83;0.80;;;21.30;43.30;;;;;;4975825;28;20435;-74
2023/03/21 15:33:55;;;;;;;2.10;1.10;;;21.20;42.80;;;;;;4975389;28;20990;-74
2023/03/21 15:36:25;;;;;;;1.90;0.90;;;21.10;43.70;;;;;;4976004;28;20537;-74
2023/03/21 15:38:52;;;;;;;2.00;0.80;;;20.90;42.80;;;;;;4975743;28;20434;-74
2023/03/21 15:41:30;;;;;;;1.80;0.70;;;20.70;43.30;;;;;;4975110;28;20902;-74
2023/03/21 15:44:12;;;;;;;2.00;0.90;;;20.40;44.50;;;;;;4975769;28;20478;-75
2023/03/21 15:46:43;;;;;;;2.80;0.77;;;20.10;44.30;;;;;;4975234;28;20534;-73
2023/03/21 15:49:19;;;;;;;2.47;1.13;;;20.20;44.80;;;;;;4975479;28;20473;-73
2023/03/21 15:51:49;;;;;;;2.70;1.13;;;20.10;47.50;;;;;;4976206;28;20510;-74
2023/03/21 15:54:20;;;;;;;3.43;1.40;;;19.60;50.10;;;;;;4975670;28;20471;-74
2023/03/21 15:56:50;;;;;;;9.70;1.80;;;19.40;51.40;;;;;;4975440;28;20461;-73
2023/03/21 15:59:19;;;;;;;4.60;1.67;;;19.30;52.10;;;;;;4975157;28;20462;-73
2023/03/21 16:01:47;;;;;;;3.93;1.50;;;19.00;52.70;;;;;;4975002;28;20478;-74
2023/03/21 16:04:14;;;;;;;3.23;1.77;;;18.80;53.30;;;;;;4974904;28;20948;-75
2023/03/21 16:06:52;;;;;;;2.73;1.30;;;18.60;54.10;;;;;;4975396;28;20455;-74
2023/03/21 16:09:22;;;;;;;3.07;1.37;;;18.30;54.60;;;;;;4975309;28;20473;-73
2023/03/21 16:11:50;;;;;;;2.40;1.30;;;18.10;54.90;;;;;;4975326;28;20450;-74
2023/03/21 16:14:18;;;;;;;2.80;1.30;;;18.00;55.60;;;;;;4975131;28;20538;-74
2023/03/21 16:16:46;;;;;;;6.77;1.90;;;17.60;56.20;;;;;;4975249;28;20462;-74
2023/03/21 16:19:12;;;;;;;3.00;1.67;;;17.50;56.60;;;;;;4974896;28;20944;-73
2023/03/21 16:21:40;;;;;;;2.67;1.57;;;17.60;57.10;;;;;;4975016;28;20536;-73
2023/03/21 16:24:08;;;;;;;3.80;1.63;;;17.50;57.20;;;;;;4975122;28;20454;-73
2023/03/21 16:26:37;;;;;;;2.83;1.77;;;17.30;57.70;;;;;;4974780;28;20463;-73
2023/03/21 16:29:04;;;;;;;3.40;1.70;;;17.40;57.60;;;;;;4974598;28;21002;-74
2023/03/21 16:31:34;;;;;;;3.30;1.30;;;17.40;57.80;;;;;;4974911;28;20448;-73
2023/03/21 16:34:02;;;;;;;2.90;1.90;;;17.40;58.40;;;;;;4975239;28;20862;-73
2023/03/21 16:36:31;;;;;;;4.30;1.70;;;17.30;58.40;;;;;;4974771;28;20477;-73
2023/03/21 16:38:58;;;;;;;2.67;1.40;;;17.30;58.40;;;;;;4974694;28;20497;-73
2023/03/21 16:41:27;;;;;;;3.20;1.77;;;17.20;58.70;;;;;;4974761;28;20478;-73
2023/03/21 16:43:54;;;;;;;3.07;1.50;;;17.00;59.40;;;;;;4974749;28;20462;-73
2023/03/21 16:46:22;;;;;;;2.90;1.40;;;17.00;59.40;;;;;;4974943;28;20470;-74
2023/03/21 16:48:52;;;;;;;3.80;1.43;;;17.00;59.50;;;;;;4974733;28;20453;-73
2023/03/21 16:51:21;;;;;;;3.27;1.57;;;17.10;59.60;;;;;;4974778;28;20446;-73
2023/03/21 16:53:50;;;;;;;3.33;1.93;;;17.20;59.30;;;;;;4973753;28;20509;-73
2023/03/21 16:56:19;;;;;;;3.03;1.20;;;17.10;59.40;;;;;;4974292;28;20814;-74
2023/03/21 16:58:46;;;;;;;2.80;1.77;;;17.10;59.50;;;;;;4974925;28;20450;-73
2023/03/21 17:01:14;;;;;;;4.20;2.00;;;17.10;59.50;;;;;;4974288;28;20541;-73
2023/03/21 17:03:41;;;;;;;3.23;2.37;;;17.20;59.40;;;;;;4974282;28;20532;-73
2023/03/21 17:06:13;;;;;;;2.67;2.00;;;17.20;59.20;;;;;;4974242;28;20529;-73